createdAt,value
2022-08-07T00:00:14.790Z,101737.09
2022-08-07T00:02:45.671Z,101731.09
2022-08-07T00:05:12.718Z,101724.47
2022-08-07T00:07:40.806Z,101723.91
2022-08-07T00:10:26.809Z,101733.53
2022-08-07T00:13:00.209Z,101738.09
2022-08-07T00:15:37.829Z,101730.25
2022-08-07T00:18:18.801Z,101729.50
2022-08-07T00:20:49.549Z,101732.06
2022-08-07T00:23:17.031Z,101732.72
2022-08-07T00:25:45.743Z,101733.56
2022-08-07T00:28:21.972Z,101728.28
2022-08-07T00:30:48.854Z,101731.50
2022-08-07T00:33:16.075Z,101741.78
2022-08-07T00:35:46.481Z,101738.97
2022-08-07T00:38:16.331Z,101740.72
2022-08-07T00:40:58.323Z,101746.69
2022-08-07T00:44:01.990Z,101749.19
2022-08-07T00:46:11.718Z,101749.28
2022-08-07T00:48:42.387Z,101752.84
2022-08-07T00:51:09.810Z,101750.31
2022-08-07T00:53:38.483Z,101750.44
2022-08-07T00:56:07.486Z,101748.59
2022-08-07T00:58:46.786Z,101748.84
2022-08-07T01:01:17.009Z,101752.13
2022-08-07T01:03:56.734Z,101747.22
2022-08-07T01:06:28.902Z,101742.72
2022-08-07T01:09:00.779Z,101745.00
2022-08-07T01:12:09.744Z,101745.34
2022-08-07T01:14:16.686Z,101749.88
2022-08-07T01:16:46.996Z,101746.63
2022-08-07T01:19:18.778Z,101745.56
2022-08-07T01:21:53.153Z,101744.78
2022-08-07T01:24:25.870Z,101747.22
2022-08-07T01:26:54.098Z,101748.88
2022-08-07T01:29:23.358Z,101748.78
2022-08-07T01:31:54.787Z,101748.84
2022-08-07T01:34:23.992Z,101746.09
2022-08-07T01:36:58.959Z,101750.66
2022-08-07T01:39:40.969Z,101744.66
2022-08-07T01:42:38.167Z,101746.44
2022-08-07T01:45:15.787Z,101750.66
2022-08-07T01:48:19.394Z,101751.41
2022-08-07T01:50:36.965Z,101753.41
2022-08-07T01:53:08.514Z,101748.06
2022-08-07T01:55:50.513Z,101743.84
2022-08-07T01:58:29.654Z,101749.94
2022-08-07T02:01:25.152Z,101747.63
2022-08-07T02:03:50.967Z,101746.22
2022-08-07T02:06:31.933Z,101753.16
2022-08-07T02:09:05.046Z,101747.34
2022-08-07T02:12:05.034Z,101744.25
2022-08-07T02:14:35.659Z,101753.03
2022-08-07T02:17:06.040Z,101754.38
2022-08-07T02:20:07.431Z,101737.84
2022-08-07T02:22:25.559Z,101750.22
2022-08-07T02:24:54.808Z,101752.72
2022-08-07T02:27:22.999Z,101755.19
2022-08-07T02:29:54.538Z,101754.34
2022-08-07T02:32:30.031Z,101761.47
2022-08-07T02:34:58.148Z,101745.78
2022-08-07T02:37:28.365Z,101750.03
2022-08-07T02:40:29.923Z,101753.13
2022-08-07T02:42:55.832Z,101750.19
2022-08-07T02:45:58.082Z,101758.44
2022-08-07T02:48:15.575Z,101757.84
2022-08-07T02:50:47.174Z,101765.56
2022-08-07T02:53:27.424Z,101763.84
2022-08-07T02:56:03.250Z,101763.38
2022-08-07T02:58:34.444Z,101769.31
2022-08-07T03:01:03.331Z,101765.16
2022-08-07T03:03:49.072Z,101775.53
2022-08-07T03:06:26.247Z,101774.75
2022-08-07T03:09:03.899Z,101767.72
2022-08-07T03:11:38.910Z,101772.84
2022-08-07T03:14:08.750Z,101770.03
2022-08-07T03:16:36.150Z,101770.00
2022-08-07T03:19:06.725Z,101771.72
2022-08-07T03:21:35.312Z,101764.69
2022-08-07T03:24:19.965Z,101774.09
2022-08-07T03:26:58.374Z,101774.84
2022-08-07T03:29:37.771Z,101780.81
2022-08-07T03:32:13.126Z,101775.63
2022-08-07T03:34:47.540Z,101772.91
2022-08-07T03:37:32.859Z,101773.84
2022-08-07T03:40:15.659Z,101782.47
2022-08-07T03:42:43.472Z,101778.94
2022-08-07T03:45:12.415Z,101776.44
2022-08-07T03:48:01.944Z,101779.97
2022-08-07T03:50:31.469Z,101781.94
2022-08-07T03:53:02.939Z,101779.47
2022-08-07T03:55:58.171Z,101781.88
2022-08-07T03:59:05.242Z,101777.84
2022-08-07T04:01:11.227Z,101774.28
2022-08-07T04:03:54.039Z,101783.03
2022-08-07T04:06:37.082Z,101779.59
2022-08-07T04:09:15.772Z,101783.91
2022-08-07T04:12:25.661Z,101789.56
2022-08-07T04:14:37.299Z,101789.38
2022-08-07T04:17:20.287Z,101789.25
2022-08-07T04:19:52.465Z,101791.63
2022-08-07T04:22:29.058Z,101783.16
2022-08-07T04:25:00.965Z,101781.53
2022-08-07T04:27:36.261Z,101785.38
2022-08-07T04:30:35.958Z,101792.13
2022-08-07T04:33:07.305Z,101784.72
2022-08-07T04:35:39.289Z,101789.22
2022-08-07T04:38:13.306Z,101791.94
2022-08-07T04:40:51.697Z,101788.63
2022-08-07T04:43:28.429Z,101788.59
2022-08-07T04:46:34.889Z,101789.97
2022-08-07T04:49:14.874Z,101795.50
2022-08-07T04:51:58.662Z,101797.91
2022-08-07T04:54:30.053Z,101795.09
2022-08-07T04:58:11.092Z,101800.66
2022-08-07T05:00:11.651Z,101799.09
2022-08-07T05:02:59.024Z,101805.34
2022-08-07T05:05:53.632Z,101803.63
2022-08-07T05:08:16.661Z,101806.13
2022-08-07T05:11:02.321Z,101808.66
2022-08-07T05:14:53.976Z,101811.28
2022-08-07T05:16:26.736Z,101808.72
2022-08-07T05:18:56.183Z,101810.56
2022-08-07T05:21:59.899Z,101808.91
2022-08-07T05:24:17.282Z,101809.03
2022-08-07T05:26:46.319Z,101814.25
2022-08-07T05:29:15.734Z,101817.75
2022-08-07T05:31:47.462Z,101818.75
2022-08-07T05:34:26.395Z,101817.72
2022-08-07T05:36:55.272Z,101816.72
2022-08-07T05:40:16.512Z,101822.88
2022-08-07T05:42:34.701Z,101814.56
2022-08-07T05:45:26.388Z,101815.97
2022-08-07T05:48:01.219Z,101784.47
2022-08-07T05:50:31.889Z,101822.38
2022-08-07T05:53:01.062Z,101820.47
2022-08-07T05:56:03.735Z,101826.84
2022-08-07T05:58:16.711Z,101831.84
2022-08-07T06:00:46.324Z,101828.81
2022-08-07T06:03:19.504Z,101828.22
2022-08-07T06:05:49.772Z,101835.13
2022-08-07T06:08:29.789Z,101836.09
2022-08-07T06:10:57.572Z,101843.13
2022-08-07T06:14:10.641Z,101843.19
2022-08-07T06:16:14.228Z,101838.91
2022-08-07T06:18:51.586Z,101840.72
2022-08-07T06:22:15.815Z,101851.22
2022-08-07T06:24:48.210Z,101845.97
2022-08-07T06:26:58.812Z,101848.69
2022-08-07T06:29:31.078Z,101847.81
2022-08-07T06:31:58.599Z,101850.47
2022-08-07T06:34:29.606Z,101855.63
2022-08-07T06:36:58.338Z,101857.34
2022-08-07T06:40:12.875Z,101853.78
2022-08-07T06:42:33.110Z,101858.09
2022-08-07T06:45:18.159Z,101858.94
2022-08-07T06:47:58.539Z,101865.03
2022-08-07T06:50:47.841Z,101856.44
2022-08-07T06:55:28.312Z,101859.03
2022-08-07T06:56:15.165Z,101859.97
2022-08-07T07:00:14.047Z,101865.19
2022-08-07T07:01:42.088Z,101864.34
2022-08-07T07:04:28.473Z,101868.72
2022-08-07T07:07:01.906Z,101869.84
2022-08-07T07:09:31.683Z,101863.72
2022-08-07T07:12:18.086Z,101867.22
2022-08-07T07:15:00.454Z,101869.03
2022-08-07T07:17:45.420Z,101876.84
2022-08-07T07:20:19.334Z,101875.06
2022-08-07T07:24:08.870Z,101881.09
2022-08-07T07:26:34.549Z,101883.84
2022-08-07T07:28:29.728Z,101881.25
2022-08-07T07:31:17.379Z,101880.41
2022-08-07T07:33:56.468Z,101881.41
2022-08-07T07:36:32.652Z,101880.69
2022-08-07T07:39:00.742Z,101880.69
2022-08-07T07:41:50.302Z,101881.75
2022-08-07T07:44:25.667Z,101877.38
2022-08-07T07:47:02.218Z,101881.84
2022-08-07T07:50:33.020Z,101879.25
2022-08-07T07:52:30.498Z,101874.00
2022-08-07T07:54:59.074Z,101878.47
2022-08-07T07:57:43.955Z,101874.88
2022-08-07T08:00:21.155Z,101877.59
2022-08-07T08:03:08.238Z,101875.00
2022-08-07T08:05:50.943Z,101871.56
2022-08-07T08:08:34.814Z,101869.91
2022-08-07T08:11:13.578Z,101872.63
2022-08-07T08:13:54.680Z,101868.41
2022-08-07T08:16:50.664Z,101861.38
2022-08-07T08:20:18.573Z,101865.75
2022-08-07T08:22:32.562Z,101874.66
2022-08-07T08:25:41.910Z,101866.13
2022-08-07T08:28:09.844Z,101865.28
2022-08-07T08:30:37.521Z,101866.22
2022-08-07T08:33:16.871Z,101866.25
2022-08-07T08:35:49.938Z,101862.72
2022-08-07T08:38:20.681Z,101853.94
2022-08-07T08:41:02.749Z,101851.31
2022-08-07T08:43:42.937Z,101844.44
2022-08-07T08:46:21.999Z,101848.00
2022-08-07T08:49:17.353Z,101850.84
2022-08-07T08:52:13.713Z,101843.06
2022-08-07T08:54:59.286Z,101843.97
2022-08-07T08:57:38.769Z,101846.59
2022-08-07T09:00:09.884Z,101850.94
2022-08-07T09:02:40.501Z,101849.06
2022-08-07T09:05:36.843Z,101847.53
2022-08-07T09:08:03.770Z,101850.28
2022-08-07T09:10:34.015Z,101847.72
2022-08-07T09:13:00.734Z,101850.38
2022-08-07T09:16:23.617Z,101853.00
2022-08-07T09:18:52.991Z,101844.31
2022-08-07T09:21:33.867Z,101845.13
2022-08-07T09:24:32.610Z,101846.81
2022-08-07T09:27:11.908Z,101846.88
2022-08-07T09:30:06.308Z,101857.34
2022-08-07T09:32:40.652Z,101854.72
2022-08-07T09:36:05.425Z,101853.88
2022-08-07T09:38:16.081Z,101848.72
2022-08-07T09:40:42.887Z,101849.56
2022-08-07T09:43:14.598Z,101847.91
2022-08-07T09:47:52.480Z,101846.22
2022-08-07T09:50:01.161Z,101840.97
2022-08-07T09:52:15.973Z,101839.22
2022-08-07T09:55:17.137Z,101843.59
2022-08-07T09:58:07.975Z,101838.38
2022-08-07T10:00:53.056Z,101841.00
2022-08-07T10:04:05.879Z,101843.66
2022-08-07T10:06:35.710Z,101841.88
2022-08-07T10:09:17.920Z,101845.38
2022-08-07T10:12:21.769Z,101836.56
2022-08-07T10:14:56.270Z,101838.28
2022-08-07T10:18:00.340Z,101840.78
2022-08-07T10:20:41.123Z,101832.84
2022-08-07T10:23:14.134Z,101831.84
2022-08-07T10:25:43.782Z,101828.97
2022-08-07T10:28:23.864Z,101827.03
2022-08-07T10:30:58.451Z,101820.88
2022-08-07T10:34:14.483Z,101824.22
2022-08-07T10:36:31.051Z,101813.78
2022-08-07T10:39:22.121Z,101811.97
2022-08-07T10:42:00.390Z,101815.09
2022-08-07T10:44:45.280Z,101805.06
2022-08-07T10:47:31.120Z,101807.59
2022-08-07T10:50:26.050Z,101810.63
2022-08-07T10:52:59.013Z,101796.38
2022-08-07T10:55:53.521Z,101801.34
2022-08-07T10:58:36.694Z,101796.31
2022-08-07T11:01:22.355Z,101807.03
2022-08-07T11:04:23.304Z,101803.41
2022-08-07T11:06:52.618Z,101798.06
2022-08-07T11:10:10.259Z,101801.41
2022-08-07T11:12:32.189Z,101802.41
2022-08-07T11:15:02.743Z,101801.66
2022-08-07T11:17:43.235Z,101798.06
2022-08-07T11:20:22.532Z,101801.59
2022-08-07T11:22:55.551Z,101793.66
2022-08-07T11:25:28.254Z,101786.63
2022-08-07T11:28:04.462Z,101787.53
2022-08-07T11:30:42.233Z,101794.69
2022-08-07T11:33:15.531Z,101779.72
2022-08-07T11:35:59.549Z,101791.03
2022-08-07T11:38:33.637Z,101785.63
2022-08-07T11:41:04.025Z,101778.56
2022-08-07T11:43:54.212Z,101794.34
2022-08-07T11:46:25.464Z,101784.81
2022-08-07T11:49:50.680Z,101776.84
2022-08-07T11:51:50.680Z,101778.66
2022-08-07T11:54:30.085Z,101772.66
2022-08-07T11:57:06.136Z,101775.53
2022-08-07T12:00:10.138Z,101770.25
2022-08-07T12:02:52.617Z,101771.44
2022-08-07T12:05:28.665Z,101766.28
2022-08-07T12:08:31.371Z,101768.00
2022-08-07T12:11:20.015Z,101764.53
2022-08-07T12:13:48.005Z,101760.19
2022-08-07T12:16:29.884Z,101762.06
2022-08-07T12:19:03.299Z,101764.72
2022-08-07T12:22:37.904Z,101755.03
2022-08-07T12:24:38.059Z,101761.03
2022-08-07T12:27:14.948Z,101751.34
2022-08-07T12:29:47.678Z,101753.19
2022-08-07T12:32:31.138Z,101748.97
2022-08-07T12:34:59.394Z,101751.66
2022-08-07T12:38:10.776Z,101754.25
2022-08-07T12:40:46.699Z,101747.25
2022-08-07T12:43:11.446Z,101750.78
2022-08-07T12:45:58.182Z,101749.91
2022-08-07T12:48:41.089Z,101743.78
2022-08-07T12:51:20.038Z,101756.88
2022-08-07T12:54:02.996Z,101763.81
2022-08-07T12:56:36.381Z,101750.69
2022-08-07T12:59:08.386Z,101747.94
2022-08-07T13:01:41.664Z,101747.03
2022-08-07T13:04:31.617Z,101743.47
2022-08-07T13:07:07.309Z,101738.13
2022-08-07T13:10:37.735Z,101743.41
2022-08-07T13:12:31.959Z,101738.06
2022-08-07T13:15:11.190Z,101738.09
2022-08-07T13:17:46.727Z,101735.28
2022-08-07T13:20:27.686Z,101738.66
2022-08-07T13:23:59.858Z,101731.66
2022-08-07T13:26:00.599Z,101733.34
2022-08-07T13:28:35.781Z,101727.97
2022-08-07T13:31:06.477Z,101732.19
2022-08-07T13:34:34.126Z,101722.53
2022-08-07T13:37:00.208Z,101732.06
2022-08-07T13:39:28.706Z,101730.19
2022-08-07T13:42:21.532Z,101730.97
2022-08-07T13:44:55.365Z,101729.28
2022-08-07T13:48:06.605Z,101727.31
2022-08-07T13:50:33.729Z,101728.22
2022-08-07T13:53:04.127Z,101721.22
2022-08-07T13:55:34.017Z,101726.53
2022-08-07T13:58:31.509Z,101723.84
2022-08-07T14:01:00.040Z,101718.72
2022-08-07T14:04:06.985Z,101724.13
2022-08-07T14:06:35.267Z,101721.50
2022-08-07T14:09:04.698Z,101714.47
2022-08-07T14:11:53.350Z,101734.06
2022-08-07T14:14:20.960Z,101724.38
2022-08-07T14:16:50.160Z,101718.19
2022-08-07T14:20:40.525Z,101726.28
2022-08-07T14:22:34.709Z,101722.69
2022-08-07T14:25:10.941Z,101719.31
2022-08-07T14:28:11.456Z,101721.16
2022-08-07T14:30:34.039Z,101714.09
2022-08-07T14:33:05.256Z,101722.78
2022-08-07T14:35:45.739Z,101717.31
2022-08-07T14:38:26.148Z,101716.28
2022-08-07T14:41:03.807Z,101717.91
2022-08-07T14:43:57.911Z,101716.97
2022-08-07T14:46:30.721Z,101724.91
2022-08-07T14:49:56.214Z,101718.09
2022-08-07T14:54:42.859Z,101722.56
2022-08-07T14:57:11.607Z,101722.38
2022-08-07T15:00:05.154Z,101729.63
2022-08-07T15:02:34.518Z,101724.13
2022-08-07T15:07:51.892Z,101718.88
2022-08-07T15:10:26.783Z,101725.34
2022-08-07T15:13:11.703Z,101730.81
2022-08-07T15:15:42.977Z,101731.59
2022-08-07T15:18:28.438Z,101733.28
2022-08-07T15:21:03.726Z,101725.34
2022-08-07T15:25:04.026Z,101728.47
2022-08-07T15:26:47.575Z,101736.31
2022-08-07T15:30:08.586Z,101739.19
2022-08-07T15:32:05.034Z,101731.16
2022-08-07T15:34:50.686Z,101732.81
2022-08-07T15:37:27.811Z,101738.06
2022-08-07T15:42:47.777Z,101737.16
2022-08-07T15:45:21.088Z,101740.06
2022-08-07T15:48:12.561Z,101748.09
2022-08-07T15:51:07.836Z,101740.22
2022-08-07T15:53:51.607Z,101736.75
2022-08-07T15:56:21.688Z,101740.28
2022-08-07T15:58:53.711Z,101735.00
2022-08-07T16:01:38.535Z,101730.59
2022-08-07T16:04:14.773Z,101734.09
2022-08-07T16:06:50.450Z,101729.59
2022-08-07T16:09:22.858Z,101732.16
2022-08-07T16:12:00.097Z,101719.78
2022-08-07T16:14:40.828Z,101723.50
2022-08-07T16:18:01.578Z,101721.81
2022-08-07T16:20:34.022Z,101721.69
2022-08-07T16:23:52.210Z,101720.03
2022-08-07T16:26:11.001Z,101723.41
2022-08-07T16:30:05.842Z,101725.28
2022-08-07T16:31:51.641Z,101725.97
2022-08-07T16:34:36.821Z,101734.72
2022-08-07T16:38:06.587Z,101723.25
2022-08-07T16:40:23.185Z,101718.81
2022-08-07T16:42:58.424Z,101733.75
2022-08-07T16:46:47.063Z,101722.41
2022-08-07T16:48:15.288Z,101724.13
2022-08-07T16:51:22.608Z,101731.16
2022-08-07T16:54:06.767Z,101730.25
2022-08-07T16:56:42.484Z,101738.19
2022-08-07T16:59:17.718Z,101739.97
2022-08-07T17:02:08.910Z,101733.81
2022-08-07T17:05:05.215Z,101742.69
2022-08-07T17:07:55.088Z,101735.72
2022-08-07T17:10:33.378Z,101732.28
2022-08-07T17:13:16.833Z,101741.97
2022-08-07T17:15:51.592Z,101738.47
2022-08-07T17:18:33.819Z,101729.69
2022-08-07T17:21:01.916Z,101731.50
2022-08-07T17:23:51.996Z,101735.91
2022-08-07T17:26:36.947Z,101734.13
2022-08-07T17:30:15.818Z,101729.78
2022-08-07T17:32:30.954Z,101736.75
2022-08-07T17:35:51.058Z,101735.00
2022-08-07T17:38:05.632Z,101730.63
2022-08-07T17:40:50.743Z,101730.66
2022-08-07T17:44:03.141Z,101730.69
2022-08-07T17:46:13.820Z,101729.81
2022-08-07T17:49:00.776Z,101734.19
2022-08-07T17:52:00.811Z,101735.09
2022-08-07T17:54:53.862Z,101728.94
2022-08-07T17:57:58.865Z,101728.97
2022-08-07T18:00:34.543Z,101730.69
2022-08-07T18:03:25.401Z,101734.19
2022-08-07T18:06:33.336Z,101735.94
2022-08-07T18:09:05.783Z,101735.06
2022-08-07T18:12:06.652Z,101740.31
2022-08-07T18:14:45.016Z,101726.34
2022-08-07T18:18:33.005Z,101739.47
2022-08-07T18:21:03.694Z,101739.44
2022-08-07T18:23:57.198Z,101738.50
2022-08-07T18:26:33.980Z,101737.63
2022-08-07T18:30:06.902Z,101741.16
2022-08-07T18:32:21.837Z,101744.69
2022-08-07T18:35:04.243Z,101749.03
2022-08-07T18:38:55.557Z,101742.00
2022-08-07T18:40:42.305Z,101744.63
2022-08-07T18:43:11.908Z,101742.88
2022-08-07T18:46:25.857Z,101739.38
2022-08-07T18:50:19.685Z,101744.63
2022-08-07T18:52:34.630Z,101746.34
2022-08-07T18:55:40.723Z,101754.25
2022-08-07T18:58:19.677Z,101754.25
2022-08-07T19:01:02.388Z,101755.09
2022-08-07T19:03:38.704Z,101758.56
2022-08-07T19:06:05.983Z,101760.28
2022-08-07T19:08:52.236Z,101756.78
2022-08-07T19:11:36.082Z,101756.78
2022-08-07T19:14:08.133Z,101754.13
2022-08-07T19:17:07.005Z,101768.09
2022-08-07T19:19:47.259Z,101769.84
2022-08-07T19:22:34.682Z,101761.97
2022-08-07T19:25:06.643Z,101769.81
2022-08-07T19:28:58.312Z,101773.28
2022-08-07T19:31:06.450Z,101772.41
2022-08-07T19:33:15.706Z,101775.84
2022-08-07T19:35:43.910Z,101777.59
2022-08-07T19:38:15.700Z,101775.84
2022-08-07T19:40:50.450Z,101781.94
2022-08-07T19:43:50.224Z,101786.28
2022-08-07T19:46:15.740Z,101799.31
2022-08-07T19:48:53.813Z,101801.13
2022-08-07T19:51:50.781Z,101796.78
2022-08-07T19:54:32.750Z,101759.03
2022-08-07T19:58:04.557Z,101801.06
2022-08-07T19:59:48.246Z,101797.53
2022-08-07T20:02:19.716Z,101791.47
2022-08-07T20:04:50.261Z,101793.22
2022-08-07T20:07:27.047Z,101794.09
2022-08-07T20:10:38.042Z,101786.19
2022-08-07T20:13:01.155Z,101785.31
2022-08-07T20:15:37.240Z,101790.59
2022-08-07T20:18:06.317Z,101784.41
2022-08-07T20:20:41.794Z,101794.03
2022-08-07T20:23:11.045Z,101785.28
2022-08-07T20:26:02.336Z,101792.25
2022-08-07T20:28:30.934Z,101788.69
2022-08-07T20:30:59.188Z,101784.31
2022-08-07T20:33:38.259Z,101785.16
2022-08-07T20:36:07.027Z,101779.88
2022-08-07T20:38:35.262Z,101778.97
2022-08-07T20:41:24.764Z,101785.94
2022-08-07T20:43:57.528Z,101780.72
2022-08-07T20:46:32.322Z,101784.19
2022-08-07T20:49:59.476Z,101789.41
2022-08-07T20:51:51.123Z,101789.41
2022-08-07T20:54:30.108Z,101784.06
2022-08-07T20:57:04.715Z,101787.50
2022-08-07T21:00:07.427Z,101788.31
2022-08-07T21:02:41.709Z,101782.16
2022-08-07T21:05:25.776Z,101790.91
2022-08-07T21:08:15.685Z,101785.66
2022-08-07T21:10:43.306Z,101789.09
2022-08-07T21:13:12.767Z,101785.53
2022-08-07T21:15:58.097Z,101795.97
2022-08-07T21:18:33.936Z,101800.31
2022-08-07T21:21:02.099Z,101795.09
2022-08-07T21:23:50.226Z,101802.03
2022-08-07T21:26:36.586Z,101798.50
2022-08-07T21:29:07.236Z,101808.03
2022-08-07T21:32:47.180Z,101803.69
2022-08-07T21:35:06.871Z,101809.72
2022-08-07T21:37:57.849Z,101812.34
2022-08-07T21:40:26.999Z,101814.13
2022-08-07T21:43:03.374Z,101810.63
2022-08-07T21:46:04.795Z,101812.38
2022-08-07T21:48:28.972Z,101813.28
2022-08-07T21:51:20.455Z,101813.38
2022-08-07T21:53:54.001Z,101813.38
2022-08-07T21:56:35.987Z,101811.47
2022-08-07T21:59:09.717Z,101807.09
2022-08-07T22:02:11.557Z,101778.91
2022-08-07T22:04:27.675Z,101812.25
2022-08-07T22:07:00.732Z,101814.00
2022-08-07T22:09:34.792Z,101818.34
2022-08-07T22:12:24.691Z,101812.22
2022-08-07T22:14:59.405Z,101813.81
2022-08-07T22:17:36.276Z,101818.81
2022-08-07T22:20:22.690Z,101814.41
2022-08-07T22:23:01.640Z,101817.91
2022-08-07T22:25:37.128Z,101821.34
2022-08-07T22:28:29.735Z,101814.38
2022-08-07T22:31:05.323Z,101819.56
2022-08-07T22:33:56.204Z,101822.84
2022-08-07T22:36:42.699Z,101818.50
2022-08-07T22:39:23.551Z,101822.91
2022-08-07T22:42:16.133Z,101828.16
2022-08-07T22:44:58.047Z,101815.13
2022-08-07T22:47:41.146Z,101829.75
2022-08-07T22:50:33.328Z,101831.53
2022-08-07T22:54:07.672Z,101827.97
2022-08-07T22:56:18.037Z,101826.25
2022-08-07T22:59:05.049Z,101834.91
2022-08-07T23:01:51.089Z,101829.69
2022-08-07T23:04:33.134Z,101834.00
2022-08-07T23:07:39.816Z,101839.22
2022-08-07T23:10:37.844Z,101827.09
2022-08-07T23:12:58.818Z,101838.41
2022-08-07T23:16:06.687Z,101837.50
2022-08-07T23:18:42.119Z,101835.81
2022-08-07T23:21:21.202Z,101829.69
2022-08-07T23:24:06.858Z,101839.41
2022-08-07T23:26:50.220Z,101834.19
2022-08-07T23:29:43.919Z,101825.56
2022-08-07T23:34:21.734Z,101835.16
2022-08-07T23:35:48.723Z,101831.63
2022-08-07T23:38:36.458Z,101839.50
2022-08-07T23:41:15.295Z,101847.28
2022-08-07T23:44:00.547Z,101848.97
2022-08-07T23:46:53.705Z,101846.19
2022-08-07T23:49:50.211Z,101845.34
2022-08-07T23:53:00.908Z,101842.72
2022-08-07T23:55:51.909Z,101850.63
2022-08-07T23:58:37.238Z,101840.91
